首页
METAR-TAF:

METAR-TAF

机场 :

苏丹阿都哈林机场

亚罗士打, 马来西亚

纬度: 06-11-40N, 经度: 100-24-03E, 海拔: 5米

当前天气观测

该预报发布于57分钟前的03:00 UTC
风速3节,风向多变
温度 32°C
湿度 71%
气压 1009 hPa
能见度10公里或以上
少量云层高于2000英尺

METAR: WMKA 230300Z VRB03KT 9999 FEW020 32/26 Q1009

时间: 11:57 (03:57 UTC)

预报

该预报发布于4小时和57分钟前的23:00 UTC
预报有效从23日的 00点(UTC)到 24日的 00点(UTC)
风速5节,风向多变
能见度10公里或以上
少量云层高于2000英尺

TAF: WMKA 222300Z 2300/2400 VRB05KT 9999 FEW020

超过4000个机场的气象观测和天气预报(METAR&TAF报告)。

可查询的气象台以黄色和红色小点在地图上表示。

将鼠标移到小点上方,可查看气象台名称。

然后点击查看天气观测和预报。

如需切换地图:点击带黑十字的绿色按钮放大地图;点击带横线的绿色按钮缩小地图;或者点击绿色箭头查看邻近地区的地图。


METAR-TAF: